Time,TemperatureF,DewpointF,PressureIn,WindDirection,WindDirectionDegrees,WindSpeedMPH,WindSpeedGustMPH,Humidity,HourlyPrecipIn,Conditions,Clouds,dailyrainin,SoftwareType,DateUTC
2013-01-29 00:22:00,49.0,49.0,-100.00,WNW,284,0.0,-999.0,100,0.00,,,-99.99,,2013-01-29 05:22:00,
2013-01-29 00:32:00,49.0,49.0,-100.00,WNW,284,0.0,-999.0,100,0.00,,,-99.99,,2013-01-29 05:32:00,
2013-01-29 00:42:00,49.0,49.0,-100.00,WNW,284,0.0,-999.0,100,0.00,,,-99.99,,2013-01-29 05:42:00,
2013-01-29 01:22:00,49.0,49.0,-100.00,WNW,285,0.0,-999.0,100,0.00,,,-99.99,,2013-01-29 06:22:00,
2013-01-29 01:32:00,49.0,49.0,-100.00,WNW,285,0.0,-999.0,100,0.00,,,-99.99,,2013-01-29 06:32:00,
2013-01-29 01:42:00,49.0,49.0,-100.00,WNW,285,0.0,-999.0,100,0.00,,,-99.99,,2013-01-29 06:42:00,
2013-01-29 02:21:00,48.0,48.0,-100.00,NNE,13,0.0,-999.0,100,0.00,,,-99.99,,2013-01-29 07:21:00,
2013-01-29 02:32:00,48.0,48.0,-100.00,NNE,13,0.0,-999.0,100,0.00,,,-99.99,,2013-01-29 07:32:00,
2013-01-29 02:42:00,48.0,48.0,-100.00,NNE,13,0.0,-999.0,100,0.00,,,-99.99,,2013-01-29 07:42:00,
2013-01-29 03:21:00,48.0,48.0,-100.00,NNE,13,0.0,-999.0,100,0.00,,,-99.99,,2013-01-29 08:21:00,
2013-01-29 03:32:00,48.0,48.0,-100.00,NNE,13,0.0,-999.0,100,0.00,,,-99.99,,2013-01-29 08:32:00,
2013-01-29 03:42:00,48.0,48.0,-100.00,NNE,13,0.0,-999.0,100,0.00,,,-99.99,,2013-01-29 08:42:00,
2013-01-29 04:21:00,49.0,49.0,-100.00,NNE,26,0.0,-999.0,100,0.00,,,-99.99,,2013-01-29 09:21:00,
2013-01-29 04:32:00,49.0,49.0,-100.00,NNE,26,0.0,-999.0,100,0.00,,,-99.99,,2013-01-29 09:32:00,
2013-01-29 04:42:00,49.0,49.0,-100.00,NNE,26,0.0,-999.0,100,0.00,,,-99.99,,2013-01-29 09:42:00,
2013-01-29 05:21:00,49.0,49.0,-100.00,NNE,19,0.0,-999.0,100,0.00,,,-99.99,,2013-01-29 10:21:00,
2013-01-29 05:32:00,49.0,49.0,-100.00,NNE,19,0.0,-999.0,100,0.00,,,-99.99,,2013-01-29 10:32:00,
2013-01-29 05:42:00,49.0,49.0,-100.00,NNE,19,0.0,-999.0,100,0.00,,,-99.99,,2013-01-29 10:42:00,
2013-01-29 06:22:00,50.0,50.0,-100.00,North,350,0.0,-999.0,100,0.00,,,-99.99,,2013-01-29 11:22:00,
2013-01-29 06:32:00,50.0,50.0,-100.00,North,350,0.0,-999.0,100,0.00,,,-99.99,,2013-01-29 11:32:00,
2013-01-29 06:42:00,50.0,50.0,-100.00,North,350,0.0,-999.0,100,0.00,,,-99.99,,2013-01-29 11:42:00,
2013-01-29 07:12:00,49.0,49.0,-100.00,NNE,28,0.0,-999.0,100,0.00,,,-99.99,,2013-01-29 12:12:00,
2013-01-29 07:22:00,49.0,49.0,-100.00,NNE,28,0.0,-999.0,100,0.00,,,-99.99,,2013-01-29 12:22:00,
2013-01-29 07:33:00,49.0,49.0,-100.00,NNE,28,0.0,-999.0,100,0.00,,,-99.99,,2013-01-29 12:33:00,
2013-01-29 07:43:00,49.0,49.0,-100.00,NNE,28,0.0,-999.0,100,0.00,,,-99.99,,2013-01-29 12:43:00,
2013-01-29 08:23:00,48.0,48.0,-100.00,NNE,26,0.0,-999.0,100,0.00,,,-99.99,,2013-01-29 13:23:00,
2013-01-29 08:32:00,48.0,48.0,-100.00,NNE,26,0.0,-999.0,100,0.00,,,-99.99,,2013-01-29 13:32:00,
2013-01-29 08:43:00,48.0,48.0,-100.00,NNE,26,0.0,-999.0,100,0.00,,,-99.99,,2013-01-29 13:43:00,
2013-01-29 09:22:00,51.0,51.0,-100.00,NE,52,0.0,-999.0,100,0.00,,,-99.99,,2013-01-29 14:22:00,
2013-01-29 09:33:00,51.0,51.0,-100.00,NE,52,0.0,-999.0,100,0.00,,,-99.99,,2013-01-29 14:33:00,
2013-01-29 09:43:00,51.0,51.0,-100.00,NE,52,0.0,-999.0,100,0.00,,,-99.99,,2013-01-29 14:43:00,
2013-01-29 10:22:00,57.0,57.0,-100.00,South,183,0.0,-999.0,100,0.00,,,-99.99,,2013-01-29 15:22:00,
2013-01-29 10:33:00,57.0,57.0,-100.00,South,183,0.0,-999.0,100,0.00,,,-99.99,,2013-01-29 15:33:00,
2013-01-29 10:43:00,57.0,57.0,-100.00,South,183,0.0,-999.0,100,0.00,,,-99.99,,2013-01-29 15:43:00,
2013-01-29 11:23:00,64.0,62.0,-100.00,SSE,159,1.0,-999.0,93,0.00,,,-99.99,,2013-01-29 16:23:00,
2013-01-29 11:33:00,64.0,62.0,-100.00,SSE,159,1.0,-999.0,93,0.00,,,-99.99,,2013-01-29 16:33:00,
2013-01-29 11:43:00,64.0,62.0,-100.00,SSE,159,1.0,-999.0,93,0.00,,,-99.99,,2013-01-29 16:43:00,
2013-01-29 12:22:00,70.0,63.0,-100.00,SSE,162,1.0,-999.0,79,0.00,,,-99.99,,2013-01-29 17:22:00,
2013-01-29 12:33:00,70.0,63.0,-100.00,SSE,162,1.0,-999.0,79,0.00,,,-99.99,,2013-01-29 17:33:00,
2013-01-29 12:42:00,70.0,63.0,-100.00,SSE,162,1.0,-999.0,79,0.00,,,-99.99,,2013-01-29 17:42:00,
2013-01-29 13:22:00,71.0,64.0,-100.00,SSE,167,2.0,-999.0,78,0.00,,,-99.99,,2013-01-29 18:22:00,
2013-01-29 13:33:00,71.0,64.0,-100.00,SSE,167,2.0,-999.0,78,0.00,,,-99.99,,2013-01-29 18:33:00,
2013-01-29 13:42:00,71.0,64.0,-100.00,SSE,167,2.0,-999.0,78,0.00,,,-99.99,,2013-01-29 18:42:00,
2013-01-29 14:23:00,71.0,64.0,-100.00,SSE,166,2.0,-999.0,78,0.00,,,-99.99,,2013-01-29 19:23:00,
2013-01-29 14:33:00,71.0,64.0,-100.00,SSE,166,2.0,-999.0,78,0.00,,,-99.99,,2013-01-29 19:33:00,
2013-01-29 14:42:00,71.0,64.0,-100.00,SSE,166,2.0,-999.0,78,0.00,,,-99.99,,2013-01-29 19:42:00,
2013-01-29 15:23:00,72.0,65.0,-100.00,South,169,2.0,-999.0,79,0.00,,,-99.99,,2013-01-29 20:23:00,
2013-01-29 15:33:00,72.0,65.0,-100.00,South,169,2.0,-999.0,79,0.00,,,-99.99,,2013-01-29 20:33:00,
2013-01-29 15:42:00,72.0,65.0,-100.00,South,169,2.0,-999.0,79,0.00,,,-99.99,,2013-01-29 20:42:00,
2013-01-29 16:22:00,68.0,64.0,-100.00,SSE,166,2.0,-999.0,86,0.00,,,-99.99,,2013-01-29 21:22:00,
2013-01-29 16:34:00,68.0,64.0,-100.00,SSE,166,2.0,-999.0,86,0.00,,,-99.99,,2013-01-29 21:34:00,
2013-01-29 16:42:00,68.0,64.0,-100.00,SSE,166,2.0,-999.0,86,0.00,,,-99.99,,2013-01-29 21:42:00,
2013-01-29 17:22:00,68.0,64.0,-100.00,South,171,1.0,-999.0,87,0.00,,,-99.99,,2013-01-29 22:22:00,
2013-01-29 17:33:00,68.0,64.0,-100.00,South,171,1.0,-999.0,87,0.00,,,-99.99,,2013-01-29 22:33:00,
2013-01-29 17:42:00,68.0,64.0,-100.00,South,171,1.0,-999.0,87,0.00,,,-99.99,,2013-01-29 22:42:00,
2013-01-29 18:23:00,64.0,62.0,-100.00,SSE,154,2.0,-999.0,94,0.00,,,-99.99,,2013-01-29 23:23:00,
2013-01-29 18:33:00,64.0,62.0,-100.00,SSE,154,2.0,-999.0,94,0.00,,,-99.99,,2013-01-29 23:33:00,
2013-01-29 18:42:00,64.0,62.0,-100.00,SSE,154,2.0,-999.0,94,0.00,,,-99.99,,2013-01-29 23:42:00,
2013-01-29 19:22:00,63.0,63.0,-100.00,SE,137,2.0,-999.0,99,0.00,,,-99.99,,2013-01-30 00:22:00,
2013-01-29 19:32:00,63.0,63.0,-100.00,SE,137,2.0,-999.0,99,0.00,,,-99.99,,2013-01-30 00:32:00,
2013-01-29 19:43:00,63.0,63.0,-100.00,SE,137,2.0,-999.0,99,0.00,,,-99.99,,2013-01-30 00:43:00,
2013-01-29 20:22:00,62.0,62.0,-100.00,SE,144,2.0,-999.0,100,0.00,,,-99.99,,2013-01-30 01:22:00,
2013-01-29 20:32:00,62.0,62.0,-100.00,SE,144,2.0,-999.0,100,0.00,,,-99.99,,2013-01-30 01:32:00,
2013-01-29 20:42:00,62.0,62.0,-100.00,SE,144,2.0,-999.0,100,0.00,,,-99.99,,2013-01-30 01:42:00,
2013-01-29 21:12:00,62.0,62.0,-100.00,SE,146,2.0,-999.0,100,0.00,,,-99.99,,2013-01-30 02:12:00,
2013-01-29 21:22:00,62.0,62.0,-100.00,SE,146,2.0,-999.0,100,0.00,,,-99.99,,2013-01-30 02:22:00,
2013-01-29 21:33:00,62.0,62.0,-100.00,SE,146,2.0,-999.0,100,0.00,,,-99.99,,2013-01-30 02:33:00,
2013-01-29 21:42:00,62.0,62.0,-100.00,SE,146,2.0,-999.0,100,0.00,,,-99.99,,2013-01-30 02:42:00,
2013-01-29 22:22:00,62.0,62.0,-100.00,SSE,158,1.0,-999.0,100,0.00,,,-99.99,,2013-01-30 03:22:00,
2013-01-29 22:32:00,62.0,62.0,-100.00,SSE,158,1.0,-999.0,100,0.00,,,-99.99,,2013-01-30 03:32:00,
2013-01-29 22:42:00,62.0,62.0,-100.00,SSE,158,1.0,-999.0,100,0.00,,,-99.99,,2013-01-30 03:42:00,
2013-01-29 23:22:00,60.0,60.0,-100.00,SSE,155,1.0,-999.0,100,0.00,,,-99.99,,2013-01-30 04:22:00,
2013-01-29 23:32:00,60.0,60.0,-100.00,SSE,155,1.0,-999.0,100,0.00,,,-99.99,,2013-01-30 04:32:00,
2013-01-29 23:42:00,60.0,60.0,-100.00,SSE,155,1.0,-999.0,100,0.00,,,-99.99,,2013-01-30 04:42:00,